sensor_id;sensor_type;location;lat;lon;timestamp;P1;durP1;ratioP1;P2;durP2;ratioP2
12980;SDS011;6555;50.468;8.480;2023-02-14T00:02:18;3.00;;;2.53;;
12980;SDS011;6555;50.468;8.480;2023-02-14T00:07:38;2.40;;;1.80;;
12980;SDS011;6555;50.468;8.480;2023-02-14T00:13:09;1.77;;;1.67;;
12980;SDS011;6555;50.468;8.480;2023-02-14T00:18:33;2.03;;;1.83;;
12980;SDS011;6555;50.468;8.480;2023-02-14T00:24:21;1.80;;;1.57;;
12980;SDS011;6555;50.468;8.480;2023-02-14T00:29:40;3.00;;;1.97;;
12980;SDS011;6555;50.468;8.480;2023-02-14T00:42:02;1.60;;;1.50;;
12980;SDS011;6555;50.468;8.480;2023-02-14T00:47:23;2.10;;;1.73;;
12980;SDS011;6555;50.468;8.480;2023-02-14T00:52:52;2.47;;;1.83;;
12980;SDS011;6555;50.468;8.480;2023-02-14T00:58:10;1.70;;;1.60;;
12980;SDS011;6555;50.468;8.480;2023-02-14T01:03:41;2.17;;;1.90;;
12980;SDS011;6555;50.468;8.480;2023-02-14T01:08:58;1.80;;;1.70;;
12980;SDS011;6555;50.468;8.480;2023-02-14T01:14:29;1.90;;;1.63;;
12980;SDS011;6555;50.468;8.480;2023-02-14T01:19:46;2.03;;;1.83;;
12980;SDS011;6555;50.468;8.480;2023-02-14T01:25:16;2.13;;;1.77;;
12980;SDS011;6555;50.468;8.480;2023-02-14T01:30:34;2.20;;;1.83;;
12980;SDS011;6555;50.468;8.480;2023-02-14T01:36:05;2.83;;;1.80;;
12980;SDS011;6555;50.468;8.480;2023-02-14T01:41:22;2.17;;;1.90;;
12980;SDS011;6555;50.468;8.480;2023-02-14T01:46:57;1.70;;;1.53;;
12980;SDS011;6555;50.468;8.480;2023-02-14T01:52:17;2.10;;;1.87;;
12980;SDS011;6555;50.468;8.480;2023-02-14T01:57:50;2.30;;;2.03;;
12980;SDS011;6555;50.468;8.480;2023-02-14T02:03:12;2.17;;;1.83;;
12980;SDS011;6555;50.468;8.480;2023-02-14T02:08:46;1.80;;;1.67;;
12980;SDS011;6555;50.468;8.480;2023-02-14T02:14:08;1.87;;;1.67;;
12980;SDS011;6555;50.468;8.480;2023-02-14T02:20:06;2.77;;;2.07;;
12980;SDS011;6555;50.468;8.480;2023-02-14T02:26:04;2.33;;;1.97;;
12980;SDS011;6555;50.468;8.480;2023-02-14T02:38:01;2.20;;;1.90;;
12980;SDS011;6555;50.468;8.480;2023-02-14T02:43:46;2.23;;;2.03;;
12980;SDS011;6555;50.468;8.480;2023-02-14T02:49:24;1.93;;;1.80;;
12980;SDS011;6555;50.468;8.480;2023-02-14T02:55:18;2.50;;;2.07;;
12980;SDS011;6555;50.468;8.480;2023-02-14T03:00:41;2.10;;;1.80;;
12980;SDS011;6555;50.468;8.480;2023-02-14T03:06:13;2.00;;;1.80;;
12980;SDS011;6555;50.468;8.480;2023-02-14T03:11:30;2.20;;;1.93;;
12980;SDS011;6555;50.468;8.480;2023-02-14T03:17:02;2.40;;;2.13;;
12980;SDS011;6555;50.468;8.480;2023-02-14T03:22:26;2.33;;;2.13;;
12980;SDS011;6555;50.468;8.480;2023-02-14T03:28:07;2.60;;;2.10;;
12980;SDS011;6555;50.468;8.480;2023-02-14T03:33:30;2.23;;;2.03;;
12980;SDS011;6555;50.468;8.480;2023-02-14T03:39:06;3.50;;;2.33;;
12980;SDS011;6555;50.468;8.480;2023-02-14T03:44:30;2.50;;;2.30;;
12980;SDS011;6555;50.468;8.480;2023-02-14T03:50:04;2.60;;;2.00;;
12980;SDS011;6555;50.468;8.480;2023-02-14T03:55:38;2.27;;;1.90;;
12980;SDS011;6555;50.468;8.480;2023-02-14T04:01:03;2.37;;;2.07;;
12980;SDS011;6555;50.468;8.480;2023-02-14T04:06:39;2.53;;;2.13;;
12980;SDS011;6555;50.468;8.480;2023-02-14T04:11:55;2.50;;;2.17;;
12980;SDS011;6555;50.468;8.480;2023-02-14T04:17:26;2.40;;;2.13;;
12980;SDS011;6555;50.468;8.480;2023-02-14T04:23:00;2.57;;;2.17;;
12980;SDS011;6555;50.468;8.480;2023-02-14T04:28:32;2.90;;;2.10;;
12980;SDS011;6555;50.468;8.480;2023-02-14T04:33:49;2.87;;;2.20;;
12980;SDS011;6555;50.468;8.480;2023-02-14T04:39:40;2.73;;;2.20;;
12980;SDS011;6555;50.468;8.480;2023-02-14T04:46:08;2.53;;;2.23;;
12980;SDS011;6555;50.468;8.480;2023-02-14T04:51:40;3.30;;;2.20;;
12980;SDS011;6555;50.468;8.480;2023-02-14T04:56:57;3.77;;;2.77;;
12980;SDS011;6555;50.468;8.480;2023-02-14T05:02:28;5.03;;;3.53;;
12980;SDS011;6555;50.468;8.480;2023-02-14T05:07:45;4.67;;;2.97;;
12980;SDS011;6555;50.468;8.480;2023-02-14T05:13:16;3.40;;;2.97;;
12980;SDS011;6555;50.468;8.480;2023-02-14T05:18:32;3.60;;;2.80;;
12980;SDS011;6555;50.468;8.480;2023-02-14T05:24:03;3.27;;;2.33;;
12980;SDS011;6555;50.468;8.480;2023-02-14T05:29:27;2.30;;;2.00;;
12980;SDS011;6555;50.468;8.480;2023-02-14T05:34:57;2.60;;;2.10;;
12980;SDS011;6555;50.468;8.480;2023-02-14T05:40:14;2.70;;;2.27;;
12980;SDS011;6555;50.468;8.480;2023-02-14T05:45:45;3.10;;;2.23;;
12980;SDS011;6555;50.468;8.480;2023-02-14T05:51:02;3.33;;;2.80;;
12980;SDS011;6555;50.468;8.480;2023-02-14T05:56:34;4.83;;;3.47;;
12980;SDS011;6555;50.468;8.480;2023-02-14T06:01:51;3.27;;;2.60;;
12980;SDS011;6555;50.468;8.480;2023-02-14T06:07:21;3.20;;;2.77;;
12980;SDS011;6555;50.468;8.480;2023-02-14T06:12:38;2.93;;;2.60;;
12980;SDS011;6555;50.468;8.480;2023-02-14T06:18:09;3.90;;;3.07;;
12980;SDS011;6555;50.468;8.480;2023-02-14T06:23:26;6.40;;;4.53;;
12980;SDS011;6555;50.468;8.480;2023-02-14T06:28:57;3.93;;;3.53;;
12980;SDS011;6555;50.468;8.480;2023-02-14T06:34:14;4.17;;;2.80;;
12980;SDS011;6555;50.468;8.480;2023-02-14T06:39:44;4.43;;;3.13;;
12980;SDS011;6555;50.468;8.480;2023-02-14T06:45:02;4.27;;;2.97;;
12980;SDS011;6555;50.468;8.480;2023-02-14T06:50:34;4.63;;;3.63;;
12980;SDS011;6555;50.468;8.480;2023-02-14T06:56:04;4.50;;;3.37;;
12980;SDS011;6555;50.468;8.480;2023-02-14T07:01:22;3.50;;;3.10;;
12980;SDS011;6555;50.468;8.480;2023-02-14T07:06:53;3.57;;;2.87;;
12980;SDS011;6555;50.468;8.480;2023-02-14T07:12:09;3.93;;;3.30;;
12980;SDS011;6555;50.468;8.480;2023-02-14T07:17:40;3.87;;;3.10;;
12980;SDS011;6555;50.468;8.480;2023-02-14T07:22:57;3.37;;;3.00;;
12980;SDS011;6555;50.468;8.480;2023-02-14T07:28:27;4.30;;;3.10;;
12980;SDS011;6555;50.468;8.480;2023-02-14T07:33:46;4.67;;;3.30;;
12980;SDS011;6555;50.468;8.480;2023-02-14T07:39:17;4.10;;;3.00;;
12980;SDS011;6555;50.468;8.480;2023-02-14T07:44:33;5.60;;;3.90;;
12980;SDS011;6555;50.468;8.480;2023-02-14T07:50:05;4.33;;;3.40;;
12980;SDS011;6555;50.468;8.480;2023-02-14T07:55:35;6.50;;;4.57;;
12980;SDS011;6555;50.468;8.480;2023-02-14T08:00:53;5.20;;;3.83;;
12980;SDS011;6555;50.468;8.480;2023-02-14T08:06:25;4.80;;;3.30;;
12980;SDS011;6555;50.468;8.480;2023-02-14T08:11:42;4.57;;;3.63;;
12980;SDS011;6555;50.468;8.480;2023-02-14T08:17:38;4.70;;;3.70;;
12980;SDS011;6555;50.468;8.480;2023-02-14T08:22:59;4.00;;;3.00;;
12980;SDS011;6555;50.468;8.480;2023-02-14T08:28:32;3.83;;;2.57;;
12980;SDS011;6555;50.468;8.480;2023-02-14T08:34:05;3.23;;;2.27;;
12980;SDS011;6555;50.468;8.480;2023-02-14T08:39:46;2.93;;;2.40;;
12980;SDS011;6555;50.468;8.480;2023-02-14T08:45:10;3.93;;;2.87;;
12980;SDS011;6555;50.468;8.480;2023-02-14T08:50:44;3.17;;;2.73;;
12980;SDS011;6555;50.468;8.480;2023-02-14T08:56:03;3.03;;;2.70;;
12980;SDS011;6555;50.468;8.480;2023-02-14T09:01:46;2.73;;;2.10;;
12980;SDS011;6555;50.468;8.480;2023-02-14T09:07:10;3.50;;;2.57;;
12980;SDS011;6555;50.468;8.480;2023-02-14T09:12:47;3.00;;;2.37;;
12980;SDS011;6555;50.468;8.480;2023-02-14T09:18:10;3.33;;;2.43;;
12980;SDS011;6555;50.468;8.480;2023-02-14T09:23:58;3.17;;;2.60;;
12980;SDS011;6555;50.468;8.480;2023-02-14T09:29:41;3.00;;;2.70;;
12980;SDS011;6555;50.468;8.480;2023-02-14T09:35:34;3.43;;;2.63;;
12980;SDS011;6555;50.468;8.480;2023-02-14T09:41:12;4.33;;;3.50;;
12980;SDS011;6555;50.468;8.480;2023-02-14T09:47:32;2.77;;;2.47;;
12980;SDS011;6555;50.468;8.480;2023-02-14T09:53:18;2.47;;;2.17;;
12980;SDS011;6555;50.468;8.480;2023-02-14T09:59:43;2.33;;;1.80;;
12980;SDS011;6555;50.468;8.480;2023-02-14T10:05:47;3.60;;;2.90;;
12980;SDS011;6555;50.468;8.480;2023-02-14T10:12:04;2.87;;;2.30;;
12980;SDS011;6555;50.468;8.480;2023-02-14T10:17:53;3.37;;;2.13;;
12980;SDS011;6555;50.468;8.480;2023-02-14T10:24:08;2.23;;;2.03;;
12980;SDS011;6555;50.468;8.480;2023-02-14T10:30:12;2.97;;;2.33;;
12980;SDS011;6555;50.468;8.480;2023-02-14T10:42:52;2.40;;;1.97;;
12980;SDS011;6555;50.468;8.480;2023-02-14T10:49:30;2.80;;;2.40;;
12980;SDS011;6555;50.468;8.480;2023-02-14T10:55:46;3.13;;;2.37;;
12980;SDS011;6555;50.468;8.480;2023-02-14T11:07:47;3.37;;;2.60;;
12980;SDS011;6555;50.468;8.480;2023-02-14T11:25:58;2.20;;;1.93;;
12980;SDS011;6555;50.468;8.480;2023-02-14T11:32:19;2.77;;;2.37;;
12980;SDS011;6555;50.468;8.480;2023-02-14T11:37:24;2.50;;;2.27;;
12980;SDS011;6555;50.468;8.480;2023-02-14T11:42:34;2.57;;;2.17;;
12980;SDS011;6555;50.468;8.480;2023-02-14T11:47:44;3.03;;;2.47;;
12980;SDS011;6555;50.468;8.480;2023-02-14T11:52:49;2.60;;;2.20;;
12980;SDS011;6555;50.468;8.480;2023-02-14T11:57:58;3.07;;;2.40;;
12980;SDS011;6555;50.468;8.480;2023-02-14T12:03:04;3.83;;;3.00;;
12980;SDS011;6555;50.468;8.480;2023-02-14T12:08:08;3.23;;;2.67;;
12980;SDS011;6555;50.468;8.480;2023-02-14T12:13:23;4.03;;;3.07;;
12980;SDS011;6555;50.468;8.480;2023-02-14T12:23:52;4.27;;;3.60;;
12980;SDS011;6555;50.468;8.480;2023-02-14T12:29:09;4.10;;;3.07;;
12980;SDS011;6555;50.468;8.480;2023-02-14T12:34:16;4.90;;;3.60;;
12980;SDS011;6555;50.468;8.480;2023-02-14T12:39:22;5.50;;;4.33;;
12980;SDS011;6555;50.468;8.480;2023-02-14T12:44:34;6.00;;;4.10;;
12980;SDS011;6555;50.468;8.480;2023-02-14T12:49:54;4.90;;;3.67;;
12980;SDS011;6555;50.468;8.480;2023-02-14T12:55:17;4.20;;;3.70;;
12980;SDS011;6555;50.468;8.480;2023-02-14T13:00:36;4.80;;;3.80;;
12980;SDS011;6555;50.468;8.480;2023-02-14T13:05:49;5.17;;;4.03;;
12980;SDS011;6555;50.468;8.480;2023-02-14T13:11:00;4.97;;;3.87;;
12980;SDS011;6555;50.468;8.480;2023-02-14T13:16:13;6.53;;;4.30;;
12980;SDS011;6555;50.468;8.480;2023-02-14T13:21:25;6.43;;;4.67;;
12980;SDS011;6555;50.468;8.480;2023-02-14T13:26:33;5.33;;;4.40;;
12980;SDS011;6555;50.468;8.480;2023-02-14T13:31:41;6.53;;;5.30;;
12980;SDS011;6555;50.468;8.480;2023-02-14T13:36:44;6.13;;;4.63;;
12980;SDS011;6555;50.468;8.480;2023-02-14T13:41:49;7.17;;;5.17;;
12980;SDS011;6555;50.468;8.480;2023-02-14T13:46:53;6.17;;;4.53;;
12980;SDS011;6555;50.468;8.480;2023-02-14T13:51:57;5.80;;;4.87;;
12980;SDS011;6555;50.468;8.480;2023-02-14T14:02:40;5.73;;;4.23;;
12980;SDS011;6555;50.468;8.480;2023-02-14T14:07:45;5.17;;;3.83;;
12980;SDS011;6555;50.468;8.480;2023-02-14T14:12:48;6.47;;;5.17;;
12980;SDS011;6555;50.468;8.480;2023-02-14T14:23:38;7.20;;;5.17;;
12980;SDS011;6555;50.468;8.480;2023-02-14T14:28:43;6.93;;;5.47;;
12980;SDS011;6555;50.468;8.480;2023-02-14T14:33:57;8.30;;;6.60;;
12980;SDS011;6555;50.468;8.480;2023-02-14T14:39:02;6.67;;;5.23;;
12980;SDS011;6555;50.468;8.480;2023-02-14T14:44:05;5.93;;;4.77;;
12980;SDS011;6555;50.468;8.480;2023-02-14T14:49:10;6.17;;;4.63;;
12980;SDS011;6555;50.468;8.480;2023-02-14T14:54:15;5.83;;;4.53;;
12980;SDS011;6555;50.468;8.480;2023-02-14T14:59:27;6.60;;;4.67;;
12980;SDS011;6555;50.468;8.480;2023-02-14T15:04:33;6.43;;;5.37;;
12980;SDS011;6555;50.468;8.480;2023-02-14T15:09:36;5.60;;;4.43;;
12980;SDS011;6555;50.468;8.480;2023-02-14T15:14:43;5.27;;;4.13;;
12980;SDS011;6555;50.468;8.480;2023-02-14T15:19:52;4.07;;;3.67;;
12980;SDS011;6555;50.468;8.480;2023-02-14T15:24:59;5.90;;;4.27;;
12980;SDS011;6555;50.468;8.480;2023-02-14T15:30:03;5.63;;;3.93;;
12980;SDS011;6555;50.468;8.480;2023-02-14T15:35:10;5.13;;;4.13;;
12980;SDS011;6555;50.468;8.480;2023-02-14T15:40:17;4.43;;;3.50;;
12980;SDS011;6555;50.468;8.480;2023-02-14T15:45:28;5.67;;;3.93;;
12980;SDS011;6555;50.468;8.480;2023-02-14T15:50:34;7.50;;;5.97;;
12980;SDS011;6555;50.468;8.480;2023-02-14T15:55:46;6.90;;;5.07;;
12980;SDS011;6555;50.468;8.480;2023-02-14T16:00:50;5.23;;;3.80;;
12980;SDS011;6555;50.468;8.480;2023-02-14T16:05:56;4.57;;;3.67;;
12980;SDS011;6555;50.468;8.480;2023-02-14T16:11:00;4.53;;;3.53;;
12980;SDS011;6555;50.468;8.480;2023-02-14T16:16:05;3.90;;;3.23;;
12980;SDS011;6555;50.468;8.480;2023-02-14T16:21:13;4.53;;;3.83;;
12980;SDS011;6555;50.468;8.480;2023-02-14T16:26:18;5.13;;;3.47;;
12980;SDS011;6555;50.468;8.480;2023-02-14T16:31:21;4.33;;;3.17;;
12980;SDS011;6555;50.468;8.480;2023-02-14T16:36:28;4.87;;;3.70;;
12980;SDS011;6555;50.468;8.480;2023-02-14T16:41:33;7.40;;;3.77;;
12980;SDS011;6555;50.468;8.480;2023-02-14T16:46:36;4.53;;;3.37;;
12980;SDS011;6555;50.468;8.480;2023-02-14T16:51:41;4.97;;;3.60;;
12980;SDS011;6555;50.468;8.480;2023-02-14T16:56:47;5.03;;;3.80;;
12980;SDS011;6555;50.468;8.480;2023-02-14T17:01:53;4.97;;;3.87;;
12980;SDS011;6555;50.468;8.480;2023-02-14T17:06:59;5.20;;;3.70;;
12980;SDS011;6555;50.468;8.480;2023-02-14T17:12:07;4.63;;;3.80;;
12980;SDS011;6555;50.468;8.480;2023-02-14T17:17:16;4.63;;;3.77;;
12980;SDS011;6555;50.468;8.480;2023-02-14T17:22:21;4.50;;;3.47;;
12980;SDS011;6555;50.468;8.480;2023-02-14T17:27:24;5.57;;;3.97;;
12980;SDS011;6555;50.468;8.480;2023-02-14T17:32:27;4.23;;;3.53;;
12980;SDS011;6555;50.468;8.480;2023-02-14T17:37:31;5.33;;;3.80;;
12980;SDS011;6555;50.468;8.480;2023-02-14T17:42:35;6.47;;;3.87;;
12980;SDS011;6555;50.468;8.480;2023-02-14T17:47:39;6.17;;;3.80;;
12980;SDS011;6555;50.468;8.480;2023-02-14T17:52:44;6.67;;;3.90;;
12980;SDS011;6555;50.468;8.480;2023-02-14T17:57:47;4.63;;;3.57;;
12980;SDS011;6555;50.468;8.480;2023-02-14T18:02:52;4.40;;;3.63;;
12980;SDS011;6555;50.468;8.480;2023-02-14T18:07:57;5.87;;;3.00;;
12980;SDS011;6555;50.468;8.480;2023-02-14T18:13:00;3.83;;;3.00;;
12980;SDS011;6555;50.468;8.480;2023-02-14T18:18:03;3.60;;;3.13;;
12980;SDS011;6555;50.468;8.480;2023-02-14T18:23:07;4.80;;;2.97;;
12980;SDS011;6555;50.468;8.480;2023-02-14T18:28:11;4.33;;;3.50;;
12980;SDS011;6555;50.468;8.480;2023-02-14T18:33:14;3.13;;;2.83;;
12980;SDS011;6555;50.468;8.480;2023-02-14T18:38:19;3.63;;;3.20;;
12980;SDS011;6555;50.468;8.480;2023-02-14T18:43:22;3.70;;;3.03;;
12980;SDS011;6555;50.468;8.480;2023-02-14T18:48:25;4.37;;;3.40;;
12980;SDS011;6555;50.468;8.480;2023-02-14T18:53:29;4.83;;;3.03;;
12980;SDS011;6555;50.468;8.480;2023-02-14T18:58:32;3.57;;;2.97;;
12980;SDS011;6555;50.468;8.480;2023-02-14T19:03:36;5.63;;;3.17;;
12980;SDS011;6555;50.468;8.480;2023-02-14T19:08:41;3.20;;;2.90;;
12980;SDS011;6555;50.468;8.480;2023-02-14T19:13:44;3.07;;;2.77;;
12980;SDS011;6555;50.468;8.480;2023-02-14T19:18:49;4.23;;;3.13;;
12980;SDS011;6555;50.468;8.480;2023-02-14T19:23:55;3.63;;;2.60;;
12980;SDS011;6555;50.468;8.480;2023-02-14T19:28:59;4.17;;;3.17;;
12980;SDS011;6555;50.468;8.480;2023-02-14T19:34:04;4.23;;;3.60;;
12980;SDS011;6555;50.468;8.480;2023-02-14T19:39:10;6.13;;;3.30;;
12980;SDS011;6555;50.468;8.480;2023-02-14T19:44:14;3.47;;;2.93;;
12980;SDS011;6555;50.468;8.480;2023-02-14T19:49:18;4.77;;;3.67;;
12980;SDS011;6555;50.468;8.480;2023-02-14T19:54:23;4.53;;;3.60;;
12980;SDS011;6555;50.468;8.480;2023-02-14T19:59:26;3.87;;;3.40;;
12980;SDS011;6555;50.468;8.480;2023-02-14T20:04:32;4.50;;;4.00;;
12980;SDS011;6555;50.468;8.480;2023-02-14T20:09:37;4.40;;;3.43;;
12980;SDS011;6555;50.468;8.480;2023-02-14T20:14:39;4.83;;;3.83;;
12980;SDS011;6555;50.468;8.480;2023-02-14T20:19:51;4.27;;;3.47;;
12980;SDS011;6555;50.468;8.480;2023-02-14T20:24:57;3.50;;;2.83;;
12980;SDS011;6555;50.468;8.480;2023-02-14T20:30:00;3.80;;;3.40;;
12980;SDS011;6555;50.468;8.480;2023-02-14T20:35:04;5.13;;;3.30;;
12980;SDS011;6555;50.468;8.480;2023-02-14T20:40:09;3.87;;;3.23;;
12980;SDS011;6555;50.468;8.480;2023-02-14T20:45:13;4.43;;;3.57;;
12980;SDS011;6555;50.468;8.480;2023-02-14T20:50:16;7.63;;;4.40;;
12980;SDS011;6555;50.468;8.480;2023-02-14T20:55:21;5.23;;;3.40;;
12980;SDS011;6555;50.468;8.480;2023-02-14T21:00:24;3.97;;;3.33;;
12980;SDS011;6555;50.468;8.480;2023-02-14T21:05:28;5.13;;;4.27;;
12980;SDS011;6555;50.468;8.480;2023-02-14T21:10:32;5.20;;;3.50;;
12980;SDS011;6555;50.468;8.480;2023-02-14T21:15:35;4.33;;;3.47;;
12980;SDS011;6555;50.468;8.480;2023-02-14T21:20:38;9.27;;;3.90;;
12980;SDS011;6555;50.468;8.480;2023-02-14T21:25:42;3.83;;;3.33;;
12980;SDS011;6555;50.468;8.480;2023-02-14T21:30:45;5.10;;;4.10;;
12980;SDS011;6555;50.468;8.480;2023-02-14T21:35:48;5.73;;;4.27;;
12980;SDS011;6555;50.468;8.480;2023-02-14T21:40:59;5.13;;;4.00;;
12980;SDS011;6555;50.468;8.480;2023-02-14T21:46:05;6.90;;;4.27;;
12980;SDS011;6555;50.468;8.480;2023-02-14T21:51:10;5.03;;;4.00;;
12980;SDS011;6555;50.468;8.480;2023-02-14T21:56:15;5.50;;;4.07;;
12980;SDS011;6555;50.468;8.480;2023-02-14T22:01:20;6.43;;;4.77;;
12980;SDS011;6555;50.468;8.480;2023-02-14T22:06:26;5.90;;;4.00;;
12980;SDS011;6555;50.468;8.480;2023-02-14T22:11:30;5.80;;;4.03;;
12980;SDS011;6555;50.468;8.480;2023-02-14T22:16:34;5.73;;;4.00;;
12980;SDS011;6555;50.468;8.480;2023-02-14T22:21:38;7.90;;;5.23;;
12980;SDS011;6555;50.468;8.480;2023-02-14T22:26:42;4.90;;;4.07;;
12980;SDS011;6555;50.468;8.480;2023-02-14T22:31:45;6.67;;;3.97;;
12980;SDS011;6555;50.468;8.480;2023-02-14T22:36:48;5.87;;;3.60;;
12980;SDS011;6555;50.468;8.480;2023-02-14T22:41:53;5.83;;;3.90;;
12980;SDS011;6555;50.468;8.480;2023-02-14T22:46:56;4.40;;;3.47;;
12980;SDS011;6555;50.468;8.480;2023-02-14T22:51:58;5.27;;;3.77;;
12980;SDS011;6555;50.468;8.480;2023-02-14T22:57:03;4.50;;;3.37;;
12980;SDS011;6555;50.468;8.480;2023-02-14T23:02:06;4.03;;;3.33;;
12980;SDS011;6555;50.468;8.480;2023-02-14T23:07:09;4.50;;;3.53;;
12980;SDS011;6555;50.468;8.480;2023-02-14T23:12:14;5.23;;;3.83;;
12980;SDS011;6555;50.468;8.480;2023-02-14T23:17:31;4.33;;;3.20;;
12980;SDS011;6555;50.468;8.480;2023-02-14T23:22:51;4.67;;;3.47;;
12980;SDS011;6555;50.468;8.480;2023-02-14T23:27:55;5.87;;;4.50;;
12980;SDS011;6555;50.468;8.480;2023-02-14T23:33:14;4.77;;;3.47;;
